Time;durP1;ratioP1;P1;durP2;ratioP2;P2;SDS_P1;SDS_P2;PMS_P1;PMS_P2;Temp;Humidity;BMP_temperature;BMP_pressure;BME280_temperature;BME280_humidity;BME280_pressure;Samples;Min_cycle;Max_cycle;Signal;HPM_P1;HPM_P2
2022/03/03 00:00:20;;;;;;;16.30;12.83;;;3.20;99.90;;;;;;5023918;28;20429;-38
2022/03/03 00:02:47;;;;;;;19.50;14.47;;;3.40;99.90;;;;;;5027026;28;20429;-38
2022/03/03 00:05:12;;;;;;;17.73;14.57;;;3.30;99.90;;;;;;5026099;28;20286;-38
2022/03/03 00:07:39;;;;;;;18.50;13.60;;;3.20;99.90;;;;;;5026936;28;20520;-39
2022/03/03 00:10:07;;;;;;;16.47;13.10;;;3.30;99.90;;;;;;5025415;28;20847;-39
2022/03/03 00:12:33;;;;;;;20.93;15.30;;;3.50;99.90;;;;;;5023008;28;20436;-39
2022/03/03 00:14:59;;;;;;;17.17;14.30;;;3.50;99.90;;;;;;5033732;28;20413;-38
2022/03/03 00:17:25;;;;;;;21.20;15.07;;;3.60;99.90;;;;;;5033862;28;21195;-39
2022/03/03 00:19:51;;;;;;;19.70;14.90;;;3.30;99.90;;;;;;5032798;28;20676;-39
2022/03/03 00:22:16;;;;;;;22.23;15.83;;;3.40;99.90;;;;;;5043547;28;20190;-39
2022/03/03 00:24:43;;;;;;;21.43;14.40;;;3.20;99.90;;;;;;5053756;28;20315;-39
2022/03/03 00:27:09;;;;;;;20.00;14.30;;;2.90;99.90;;;;;;5027801;28;20185;-39
2022/03/03 00:29:34;;;;;;;19.47;14.03;;;3.00;99.90;;;;;;5032945;28;20456;-39
2022/03/03 00:32:00;;;;;;;18.20;13.00;;;3.10;99.90;;;;;;5033313;28;20554;-38
2022/03/03 00:34:26;;;;;;;19.27;13.10;;;2.90;99.90;;;;;;5033725;28;20676;-39
2022/03/03 00:36:51;;;;;;;20.13;13.60;;;3.00;99.90;;;;;;5032786;28;20602;-40
2022/03/03 00:39:17;;;;;;;14.73;12.53;;;3.10;99.90;;;;;;5033425;28;20243;-39
2022/03/03 00:41:43;;;;;;;18.00;13.90;;;3.30;99.90;;;;;;5027125;28;20471;-39
2022/03/03 00:44:09;;;;;;;19.70;13.73;;;3.10;99.90;;;;;;5029761;28;20182;-39
2022/03/03 00:46:36;;;;;;;17.40;13.97;;;3.00;99.90;;;;;;5033037;28;20189;-40
2022/03/03 00:49:03;;;;;;;16.30;12.97;;;3.20;99.90;;;;;;5033082;28;20456;-39
2022/03/03 00:51:29;;;;;;;19.17;13.67;;;3.30;99.90;;;;;;5032196;28;20475;-38
2022/03/03 00:53:55;;;;;;;15.83;12.80;;;3.20;99.90;;;;;;5032312;28;20457;-39
2022/03/03 00:56:21;;;;;;;18.43;13.47;;;2.90;99.90;;;;;;5024469;28;20221;-39
2022/03/03 00:58:47;;;;;;;19.83;14.07;;;3.00;99.90;;;;;;5030088;28;20536;-38
2022/03/03 01:01:14;;;;;;;22.00;14.47;;;2.90;99.90;;;;;;5032627;28;20332;-39
2022/03/03 01:03:40;;;;;;;18.93;13.17;;;2.90;99.90;;;;;;5032918;28;20524;-39
2022/03/03 01:06:05;;;;;;;18.10;14.13;;;2.70;99.90;;;;;;5031851;28;20829;-39
2022/03/03 01:08:31;;;;;;;19.77;14.07;;;3.00;99.90;;;;;;5032787;28;20464;-39
2022/03/03 01:10:57;;;;;;;18.97;14.47;;;3.00;99.90;;;;;;5028386;28;20180;-38
2022/03/03 01:13:22;;;;;;;19.63;14.87;;;3.20;99.90;;;;;;5022207;28;20560;-39
2022/03/03 01:15:49;;;;;;;21.37;14.30;;;3.00;99.90;;;;;;5033011;28;20774;-39
2022/03/03 01:18:16;;;;;;;20.30;14.10;;;3.10;99.90;;;;;;5033109;28;20213;-39
2022/03/03 01:20:41;;;;;;;21.30;14.30;;;3.00;99.90;;;;;;5031976;28;21013;-39
2022/03/03 01:23:07;;;;;;;21.63;15.80;;;2.80;99.90;;;;;;5048927;28;20430;-39
2022/03/03 01:25:33;;;;;;;19.23;13.10;;;3.00;99.90;;;;;;5049068;28;20218;-39
2022/03/03 01:27:59;;;;;;;19.43;14.30;;;2.80;99.90;;;;;;5017047;28;20218;-39
2022/03/03 01:30:25;;;;;;;18.43;15.40;;;2.90;99.90;;;;;;5029023;28;20557;-39
2022/03/03 01:32:50;;;;;;;18.37;15.17;;;2.70;99.90;;;;;;5029473;28;20432;-39
2022/03/03 01:35:16;;;;;;;20.90;15.23;;;2.60;99.90;;;;;;5029462;28;20183;-39
2022/03/03 01:37:42;;;;;;;21.23;14.60;;;2.90;99.90;;;;;;5029455;28;20212;-38
2022/03/03 01:40:08;;;;;;;25.70;17.27;;;2.60;99.90;;;;;;5029172;28;20303;-38
2022/03/03 01:42:34;;;;;;;22.33;15.40;;;2.40;99.90;;;;;;5018543;28;20614;-39
2022/03/03 01:45:00;;;;;;;26.80;16.20;;;2.60;99.90;;;;;;5029111;28;20679;-39
2022/03/03 01:47:27;;;;;;;24.27;16.30;;;2.50;99.90;;;;;;5029286;28;20212;-38
2022/03/03 01:49:55;;;;;;;23.33;15.80;;;2.60;99.90;;;;;;5028246;28;20870;-39
2022/03/03 01:52:21;;;;;;;25.53;17.00;;;2.40;99.90;;;;;;5029063;28;20449;-39
2022/03/03 01:54:47;;;;;;;21.00;15.80;;;2.50;99.90;;;;;;5029055;28;20413;-38
2022/03/03 01:57:17;;;;;;;23.83;16.57;;;2.20;99.90;;;;;;5018730;28;20476;-39
2022/03/03 01:59:43;;;;;;;22.67;15.70;;;2.20;99.90;;;;;;5028014;28;20429;-39
2022/03/03 02:02:10;;;;;;;23.83;16.30;;;2.10;99.90;;;;;;5028933;28;20967;-39
2022/03/03 02:04:38;;;;;;;23.33;15.50;;;2.30;99.90;;;;;;5027740;28;20451;-39
2022/03/03 02:07:04;;;;;;;23.07;16.07;;;2.00;99.90;;;;;;5029244;28;20491;-39
2022/03/03 02:09:30;;;;;;;22.17;16.20;;;2.40;99.90;;;;;;5028670;28;20473;-39
2022/03/03 02:11:56;;;;;;;24.57;15.63;;;2.50;99.90;;;;;;5019984;28;20821;-39
2022/03/03 02:14:22;;;;;;;24.23;16.07;;;2.20;99.90;;;;;;5025429;28;20748;-39
2022/03/03 02:16:48;;;;;;;27.40;16.73;;;2.20;99.90;;;;;;5028514;28;20182;-39
2022/03/03 02:19:17;;;;;;;26.27;16.57;;;2.00;99.90;;;;;;5029147;28;20504;-39
2022/03/03 02:21:51;;;;;;;25.20;15.90;;;2.20;99.90;;;;;;5032870;28;20193;-38
2022/03/03 02:24:19;;;;;;;22.00;16.63;;;2.20;99.90;;;;;;5048558;28;20958;-39
2022/03/03 02:26:46;;;;;;;21.07;15.53;;;2.10;99.90;;;;;;5036104;28;20464;-39
2022/03/03 02:29:12;;;;;;;24.50;15.70;;;2.40;99.90;;;;;;5024366;28;20431;-39
2022/03/03 02:31:38;;;;;;;26.43;17.00;;;2.10;99.90;;;;;;5027805;28;20765;-39
2022/03/03 02:34:04;;;;;;;21.23;15.70;;;2.10;99.90;;;;;;5028450;28;20191;-39
2022/03/03 02:36:30;;;;;;;21.20;15.00;;;2.10;99.90;;;;;;5028013;28;20436;-40
2022/03/03 02:38:58;;;;;;;25.07;15.83;;;2.20;99.90;;;;;;5028106;28;20265;-39
2022/03/03 02:41:25;;;;;;;20.70;15.13;;;2.30;99.90;;;;;;5024603;28;20600;-39
2022/03/03 02:43:51;;;;;;;21.90;15.70;;;2.70;99.90;;;;;;5022979;28;20421;-38
2022/03/03 02:46:17;;;;;;;18.93;14.00;;;3.00;99.90;;;;;;5027947;28;20428;-39
2022/03/03 02:48:43;;;;;;;23.57;16.53;;;2.90;99.90;;;;;;5027736;28;20602;-40
2022/03/03 02:51:09;;;;;;;22.00;15.77;;;2.80;99.90;;;;;;5027285;28;20429;-39
2022/03/03 02:53:36;;;;;;;18.90;14.70;;;3.20;99.90;;;;;;5027725;28;20508;-39
2022/03/03 02:56:03;;;;;;;24.40;15.87;;;3.00;99.90;;;;;;5027737;28;20460;-40
2022/03/03 02:58:28;;;;;;;19.93;15.13;;;2.90;99.90;;;;;;5021178;28;20449;-39
2022/03/03 03:00:56;;;;;;;22.87;15.97;;;3.00;99.90;;;;;;5027450;28;20476;-39
2022/03/03 03:03:22;;;;;;;20.53;14.90;;;3.00;99.90;;;;;;5027255;28;20503;-39
2022/03/03 03:05:48;;;;;;;21.53;15.40;;;2.90;99.90;;;;;;5027744;28;20445;-39
2022/03/03 03:08:14;;;;;;;23.73;14.90;;;2.90;99.90;;;;;;5026195;28;20592;-39
2022/03/03 03:10:41;;;;;;;23.90;16.03;;;2.80;99.90;;;;;;5027074;28;20186;-38
2022/03/03 03:13:08;;;;;;;21.23;16.17;;;2.80;99.90;;;;;;5012484;28;20500;-39
2022/03/03 03:15:35;;;;;;;19.17;15.00;;;2.70;99.90;;;;;;5027384;28;20985;-39
2022/03/03 03:18:13;;;;;;;22.50;14.83;;;2.70;99.90;;;;;;5027309;28;20805;-39
2022/03/03 03:20:41;;;;;;;16.70;12.93;;;2.80;99.90;;;;;;5026843;28;20865;-39
2022/03/03 03:23:10;;;;;;;17.03;12.90;;;3.00;99.90;;;;;;5042332;28;20481;-39
2022/03/03 03:25:43;;;;;;;16.27;13.00;;;2.80;99.90;;;;;;5047028;28;20896;-39
2022/03/03 03:28:09;;;;;;;17.93;13.60;;;3.10;99.90;;;;;;5022237;28;20527;-39
2022/03/03 03:30:35;;;;;;;23.70;14.93;;;3.10;99.90;;;;;;5026563;28;20438;-39
2022/03/03 03:33:02;;;;;;;19.00;13.90;;;3.30;99.90;;;;;;5027016;28;20463;-39
2022/03/03 03:35:27;;;;;;;18.83;14.33;;;3.30;99.90;;;;;;5027414;28;20464;-39
2022/03/03 03:37:53;;;;;;;22.00;15.63;;;3.30;99.90;;;;;;5027023;28;20465;-40
2022/03/03 03:40:19;;;;;;;19.70;15.00;;;3.20;99.90;;;;;;5026345;28;20197;-39
2022/03/03 03:42:45;;;;;;;18.40;13.93;;;3.00;99.90;;;;;;5019724;28;20393;-39
2022/03/03 03:45:11;;;;;;;18.50;15.13;;;3.20;99.90;;;;;;5022505;28;20557;-39
2022/03/03 03:47:37;;;;;;;17.73;13.60;;;3.20;99.90;;;;;;5025197;28;20761;-38
2022/03/03 03:50:08;;;;;;;19.67;14.67;;;3.40;99.90;;;;;;5024972;28;20978;-38
2022/03/03 03:52:37;;;;;;;20.07;14.27;;;3.00;99.90;;;;;;5027066;28;20520;-39
2022/03/03 03:55:08;;;;;;;21.00;14.40;;;3.20;99.90;;;;;;5027057;28;20632;-39
2022/03/03 03:57:34;;;;;;;18.57;14.00;;;3.30;99.90;;;;;;5021321;28;20544;-39
2022/03/03 04:00:00;;;;;;;18.47;14.37;;;3.00;99.90;;;;;;5020903;28;21041;-39
2022/03/03 04:02:25;;;;;;;18.77;14.53;;;3.00;99.90;;;;;;5023083;28;20795;-39
2022/03/03 04:04:52;;;;;;;16.70;12.53;;;2.90;99.90;;;;;;5026713;28;20433;-38
2022/03/03 04:07:18;;;;;;;16.70;13.40;;;3.00;99.90;;;;;;5026521;28;20252;-39
2022/03/03 04:09:44;;;;;;;19.23;14.97;;;3.10;99.90;;;;;;5024891;28;20468;-39
2022/03/03 04:12:10;;;;;;;18.50;13.57;;;3.10;99.90;;;;;;5023033;28;20430;-39
2022/03/03 04:14:36;;;;;;;18.63;14.00;;;2.70;99.90;;;;;;5022214;28;20436;-38
2022/03/03 04:17:01;;;;;;;16.07;13.00;;;2.70;99.90;;;;;;5025425;28;20425;-39
2022/03/03 04:19:27;;;;;;;19.97;14.23;;;2.70;99.90;;;;;;5026931;28;20581;-38
2022/03/03 04:21:53;;;;;;;17.80;13.40;;;2.90;99.90;;;;;;5038408;28;20185;-39
2022/03/03 04:24:18;;;;;;;17.17;12.27;;;2.80;99.90;;;;;;5046630;28;20683;-39
2022/03/03 04:26:44;;;;;;;15.87;11.67;;;3.00;99.90;;;;;;5046585;28;20201;-39
2022/03/03 04:29:10;;;;;;;14.30;11.93;;;3.40;99.90;;;;;;5015806;28;20237;-39
2022/03/03 04:31:36;;;;;;;18.30;13.43;;;3.30;99.90;;;;;;5025969;28;20421;-39
2022/03/03 04:34:01;;;;;;;16.87;13.20;;;3.20;99.90;;;;;;5026841;28;20277;-39
2022/03/03 04:36:27;;;;;;;17.20;13.07;;;3.20;99.90;;;;;;5026130;28;20704;-38
2022/03/03 04:38:53;;;;;;;18.07;11.70;;;3.30;99.90;;;;;;5026681;28;20553;-39
2022/03/03 04:41:19;;;;;;;18.87;13.40;;;3.10;99.90;;;;;;5025933;28;20202;-38
2022/03/03 04:43:45;;;;;;;17.80;12.83;;;2.90;99.90;;;;;;5016466;28;20194;-39
2022/03/03 04:46:11;;;;;;;16.30;12.40;;;3.00;99.90;;;;;;5026383;28;20416;-39
2022/03/03 04:48:36;;;;;;;14.23;11.63;;;2.80;99.90;;;;;;5026891;28;20460;-38
2022/03/03 04:51:02;;;;;;;13.20;11.77;;;3.10;99.90;;;;;;5025392;28;20574;-39
2022/03/03 04:53:29;;;;;;;17.70;11.63;;;3.10;99.90;;;;;;5026919;28;20515;-39
2022/03/03 04:55:55;;;;;;;16.97;12.20;;;3.50;99.90;;;;;;5026216;28;20559;-39
2022/03/03 04:58:21;;;;;;;16.63;11.63;;;3.30;99.90;;;;;;5004850;28;20456;-38
2022/03/03 05:00:47;;;;;;;13.20;10.73;;;3.50;99.90;;;;;;5028932;28;20459;-38
2022/03/03 05:03:13;;;;;;;16.83;11.20;;;3.50;99.30;;;;;;5029958;28;20559;-39
2022/03/03 05:05:39;;;;;;;17.80;11.50;;;3.60;99.50;;;;;;5029782;28;20583;-38
2022/03/03 05:08:05;;;;;;;14.80;11.00;;;3.50;99.30;;;;;;5028436;28;20433;-39
2022/03/03 05:10:31;;;;;;;15.23;11.63;;;3.50;99.30;;;;;;5029551;28;20305;-38
2022/03/03 05:12:57;;;;;;;19.03;11.93;;;3.50;99.20;;;;;;5021744;28;20452;-39
2022/03/03 05:15:24;;;;;;;15.80;11.50;;;3.70;99.00;;;;;;5027930;28;20187;-39
2022/03/03 05:17:50;;;;;;;13.80;11.30;;;3.50;99.10;;;;;;5028177;28;20432;-38
2022/03/03 05:20:16;;;;;;;14.70;10.80;;;3.40;99.00;;;;;;5034755;28;20428;-38
2022/03/03 05:22:42;;;;;;;15.30;11.10;;;3.30;99.40;;;;;;5045125;28;20489;-38
2022/03/03 05:25:10;;;;;;;21.53;12.90;;;3.20;99.70;;;;;;5049827;28;20451;-39
2022/03/03 05:27:36;;;;;;;18.00;13.63;;;3.20;99.80;;;;;;5042430;28;20195;-39
2022/03/03 05:30:03;;;;;;;20.07;14.10;;;3.10;99.80;;;;;;5023425;28;20460;-39
2022/03/03 05:32:29;;;;;;;19.93;13.80;;;3.30;99.90;;;;;;5029482;28;20432;-39
2022/03/03 05:34:55;;;;;;;21.57;15.33;;;3.10;99.90;;;;;;5027931;28;20425;-39
2022/03/03 05:37:23;;;;;;;30.77;21.30;;;3.30;99.90;;;;;;5042796;28;20289;-39
2022/03/03 05:39:50;;;;;;;44.73;29.53;;;3.10;99.90;;;;;;5048670;28;20708;-38
2022/03/03 05:42:16;;;;;;;45.37;31.23;;;3.30;99.90;;;;;;5021268;28;20784;-39
2022/03/03 05:44:42;;;;;;;46.23;28.30;;;3.10;99.90;;;;;;5018061;28;20858;-39
2022/03/03 05:47:08;;;;;;;35.20;23.30;;;3.20;99.90;;;;;;5018361;28;20433;-39
2022/03/03 05:49:36;;;;;;;28.87;18.73;;;3.10;99.90;;;;;;5035888;28;20435;-39
2022/03/03 05:52:02;;;;;;;33.30;20.77;;;2.90;99.90;;;;;;5031479;28;20218;-39
2022/03/03 05:54:28;;;;;;;34.33;22.20;;;3.30;99.90;;;;;;5029057;28;20524;-38
2022/03/03 05:56:54;;;;;;;34.80;22.00;;;3.30;99.90;;;;;;5028942;28;20978;-39
2022/03/03 05:59:23;;;;;;;40.13;23.67;;;3.10;99.90;;;;;;5013054;28;20190;-38
2022/03/03 06:01:49;;;;;;;42.50;25.50;;;2.90;99.90;;;;;;5026482;28;21030;-38
2022/03/03 06:04:16;;;;;;;48.40;28.50;;;2.80;99.90;;;;;;5028758;28;20811;-39
2022/03/03 06:06:54;;;;;;;44.77;24.90;;;2.90;99.90;;;;;;5028829;28;20421;-39
2022/03/03 06:09:24;;;;;;;36.13;22.40;;;3.00;99.90;;;;;;5028682;28;20460;-38
2022/03/03 06:12:01;;;;;;;36.87;21.90;;;3.00;99.90;;;;;;5027998;28;20447;-38
2022/03/03 06:14:41;;;;;;;25.63;15.37;;;3.10;99.90;;;;;;5016970;28;20933;-38
2022/03/03 06:17:07;;;;;;;21.27;14.23;;;3.00;99.90;;;;;;5023613;28;20421;-39
2022/03/03 06:19:41;;;;;;;17.93;12.67;;;3.10;99.90;;;;;;5028433;28;20429;-39
2022/03/03 06:22:08;;;;;;;16.27;12.10;;;3.20;99.80;;;;;;5047627;28;20853;-38
2022/03/03 06:24:34;;;;;;;20.57;12.67;;;3.00;99.60;;;;;;5048489;28;20416;-39
2022/03/03 06:27:01;;;;;;;18.60;12.33;;;3.40;99.50;;;;;;5048597;28;20424;-39
2022/03/03 06:29:27;;;;;;;14.80;11.70;;;3.00;99.20;;;;;;5015479;28;20528;-39
2022/03/03 06:31:53;;;;;;;16.07;11.70;;;3.10;99.60;;;;;;5027731;28;20424;-39
2022/03/03 06:34:20;;;;;;;15.57;11.37;;;3.20;99.70;;;;;;5041932;28;20440;-38
2022/03/03 06:36:46;;;;;;;15.57;11.33;;;3.10;99.70;;;;;;5041366;28;20433;-41
2022/03/03 06:39:13;;;;;;;17.57;11.70;;;3.30;99.80;;;;;;5027179;28;20434;-39
2022/03/03 06:41:38;;;;;;;16.00;11.80;;;3.40;99.60;;;;;;5019352;28;20442;-39
2022/03/03 06:44:05;;;;;;;14.80;11.10;;;3.20;99.40;;;;;;5019872;28;20962;-39
2022/03/03 06:46:30;;;;;;;16.03;11.33;;;3.40;99.60;;;;;;5026351;28;20202;-39
2022/03/03 06:48:56;;;;;;;17.13;11.37;;;3.20;99.50;;;;;;5027982;28;20472;-39
2022/03/03 06:51:22;;;;;;;15.73;10.77;;;3.50;99.50;;;;;;5027877;28;20201;-39
2022/03/03 06:53:54;;;;;;;16.03;10.80;;;3.20;98.80;;;;;;5025291;28;20193;-39
2022/03/03 06:56:23;;;;;;;18.73;10.93;;;3.60;98.90;;;;;;5017934;28;20732;-39
2022/03/03 06:58:52;;;;;;;12.17;9.30;;;3.40;99.30;;;;;;5019289;28;20815;-39
2022/03/03 07:01:21;;;;;;;13.93;9.93;;;3.60;98.90;;;;;;5020511;28;20420;-39
2022/03/03 07:03:48;;;;;;;11.90;10.17;;;3.60;99.10;;;;;;5028686;28;20425;-39
2022/03/03 07:06:14;;;;;;;13.13;10.10;;;3.70;98.70;;;;;;5046108;28;20424;-39
2022/03/03 07:08:41;;;;;;;13.83;10.60;;;3.70;99.10;;;;;;5043252;28;20460;-39
2022/03/03 07:11:07;;;;;;;14.50;11.30;;;3.50;98.90;;;;;;5045742;28;20431;-39
2022/03/03 07:13:33;;;;;;;13.33;10.10;;;3.80;99.00;;;;;;5034048;28;20648;-39
2022/03/03 07:16:22;;;;;;;13.67;10.40;;;4.10;98.60;;;;;;5020962;28;20464;-39
2022/03/03 07:18:52;;;;;;;12.87;10.27;;;4.20;98.10;;;;;;5021396;28;20652;-39
2022/03/03 07:21:38;;;;;;;14.73;10.43;;;4.20;97.60;;;;;;5041299;28;20413;-38
2022/03/03 07:24:23;;;;;;;12.60;10.77;;;4.30;96.80;;;;;;5038204;28;20507;-39
2022/03/03 07:26:50;;;;;;;12.57;9.97;;;4.50;96.80;;;;;;5047656;28;20849;-39
2022/03/03 07:29:18;;;;;;;14.13;10.37;;;4.50;96.80;;;;;;5027415;28;20465;-39
2022/03/03 07:31:53;;;;;;;12.63;10.30;;;4.40;97.40;;;;;;5020225;28;20425;-39
2022/03/03 07:34:26;;;;;;;14.63;10.70;;;4.40;97.60;;;;;;5024958;28;20419;-39
2022/03/03 07:36:56;;;;;;;16.50;11.10;;;4.60;98.20;;;;;;5027285;28;20417;-39
2022/03/03 07:39:30;;;;;;;18.10;11.90;;;4.60;98.30;;;;;;5027349;28;20927;-39
2022/03/03 07:41:58;;;;;;;13.93;11.13;;;4.80;97.90;;;;;;5026355;28;20417;-39
2022/03/03 07:44:24;;;;;;;19.10;12.60;;;4.90;97.20;;;;;;5018892;28;20511;-39
2022/03/03 07:46:50;;;;;;;15.90;11.30;;;5.20;96.80;;;;;;5025928;28;20492;-39
2022/03/03 07:49:20;;;;;;;14.73;11.63;;;5.40;96.80;;;;;;5026732;28;20464;-39
2022/03/03 07:51:48;;;;;;;16.40;11.30;;;5.90;96.90;;;;;;5026548;28;20417;-39
2022/03/03 07:54:14;;;;;;;18.17;12.40;;;6.10;96.20;;;;;;5026683;28;20789;-38
2022/03/03 07:56:43;;;;;;;16.73;11.50;;;6.60;95.40;;;;;;5026878;28;20441;-39
2022/03/03 07:59:16;;;;;;;15.03;12.47;;;6.80;94.60;;;;;;5019443;28;20210;-39
2022/03/03 08:01:44;;;;;;;20.20;12.83;;;6.80;94.00;;;;;;5025970;28;20418;-39
2022/03/03 08:04:15;;;;;;;19.40;13.90;;;7.20;93.50;;;;;;5027046;28;20454;-39
2022/03/03 08:06:43;;;;;;;20.70;13.77;;;7.30;92.90;;;;;;5027100;28;20481;-39
2022/03/03 08:09:09;;;;;;;18.60;13.73;;;7.40;92.70;;;;;;5026972;28;20527;-38
2022/03/03 08:11:36;;;;;;;22.77;15.80;;;7.50;92.90;;;;;;5026419;28;20413;-38
2022/03/03 08:14:01;;;;;;;17.90;14.00;;;7.50;92.60;;;;;;5025260;28;20479;-39
2022/03/03 08:16:28;;;;;;;18.60;13.53;;;7.80;92.70;;;;;;5024150;28;21011;-39
2022/03/03 08:18:57;;;;;;;20.47;13.97;;;8.00;92.40;;;;;;5026576;28;20417;-39
2022/03/03 08:21:23;;;;;;;20.83;13.80;;;7.90;92.00;;;;;;5028290;28;20436;-39
2022/03/03 08:23:50;;;;;;;19.77;13.50;;;8.50;91.10;;;;;;5035430;28;20433;-39
2022/03/03 08:26:17;;;;;;;19.73;13.80;;;8.70;90.90;;;;;;5026802;28;20447;-38
2022/03/03 08:28:43;;;;;;;20.43;13.50;;;8.70;90.50;;;;;;5023321;28;20512;-39
2022/03/03 08:31:13;;;;;;;18.37;13.40;;;8.80;90.10;;;;;;5024124;28;20425;-38
2022/03/03 08:33:53;;;;;;;19.13;13.67;;;8.70;89.50;;;;;;5028003;28;20184;-39
2022/03/03 08:36:29;;;;;;;17.73;13.60;;;9.00;90.10;;;;;;5030323;28;20421;-38
2022/03/03 08:39:04;;;;;;;18.97;12.50;;;9.30;86.90;;;;;;5030414;28;20615;-39
2022/03/03 08:41:32;;;;;;;18.40;13.00;;;9.30;86.80;;;;;;5037193;28;20950;-39
2022/03/03 08:44:01;;;;;;;15.70;12.50;;;9.50;86.00;;;;;;5022363;28;20826;-39
2022/03/03 08:46:32;;;;;;;17.20;12.03;;;9.50;83.10;;;;;;5033902;28;20855;-39
2022/03/03 08:49:02;;;;;;;15.70;13.80;;;9.50;82.10;;;;;;5030397;28;20475;-39
2022/03/03 08:51:28;;;;;;;14.90;12.50;;;9.60;82.40;;;;;;5029626;28;20748;-40
2022/03/03 08:53:55;;;;;;;16.47;12.20;;;9.70;82.80;;;;;;5030115;28;20958;-39
2022/03/03 08:56:22;;;;;;;16.57;12.73;;;9.90;81.30;;;;;;5029999;28;20445;-39
2022/03/03 08:58:49;;;;;;;18.40;13.07;;;9.90;83.30;;;;;;5029405;28;20944;-40
2022/03/03 09:01:15;;;;;;;16.60;13.17;;;10.10;81.30;;;;;;5022499;28;20417;-39
2022/03/03 09:03:43;;;;;;;19.73;14.13;;;10.20;81.80;;;;;;5028334;28;20457;-39
2022/03/03 09:06:18;;;;;;;17.63;13.50;;;10.20;77.60;;;;;;5030372;28;20186;-39
2022/03/03 09:08:44;;;;;;;18.50;14.10;;;10.30;80.10;;;;;;5030046;28;20924;-39
2022/03/03 09:11:11;;;;;;;16.83;13.50;;;10.40;78.80;;;;;;5029698;28;20455;-39
2022/03/03 09:13:37;;;;;;;16.83;11.87;;;10.70;76.90;;;;;;5027992;28;20421;-39
2022/03/03 09:16:03;;;;;;;15.73;11.97;;;10.80;72.30;;;;;;5019074;28;20479;-39
2022/03/03 09:18:29;;;;;;;14.40;12.90;;;10.80;70.80;;;;;;5029435;28;20500;-39
2022/03/03 09:20:55;;;;;;;15.30;12.70;;;10.80;70.50;;;;;;5029593;28;20516;-39
2022/03/03 09:23:20;;;;;;;20.17;14.47;;;10.80;69.10;;;;;;5044517;28;20189;-39
2022/03/03 09:25:46;;;;;;;19.10;14.80;;;11.10;76.00;;;;;;5038738;28;20178;-39
2022/03/03 09:28:12;;;;;;;18.77;15.37;;;11.20;78.20;;;;;;5029319;28;20628;-39
2022/03/03 09:30:38;;;;;;;20.80;16.80;;;11.30;79.00;;;;;;5021195;28;20207;-39
2022/03/03 09:33:04;;;;;;;19.43;15.00;;;11.50;79.20;;;;;;5027969;28;20183;-40
2022/03/03 09:35:31;;;;;;;18.67;15.07;;;11.50;78.20;;;;;;5029763;28;20510;-39
2022/03/03 09:37:57;;;;;;;16.50;14.47;;;11.80;77.40;;;;;;5029833;28;20452;-39
2022/03/03 09:40:23;;;;;;;19.73;16.37;;;11.90;75.70;;;;;;5041227;28;20498;-40
2022/03/03 09:42:56;;;;;;;22.53;16.00;;;12.00;75.20;;;;;;5015781;28;20511;-40
2022/03/03 09:45:22;;;;;;;19.23;14.63;;;12.20;75.30;;;;;;5014442;28;20541;-39
2022/03/03 09:47:52;;;;;;;18.13;14.73;;;12.20;74.70;;;;;;5023125;28;20421;-39
2022/03/03 09:50:18;;;;;;;19.27;14.90;;;12.30;73.00;;;;;;5028850;28;20465;-39
2022/03/03 09:52:45;;;;;;;19.37;14.63;;;12.50;73.00;;;;;;5031920;28;20534;-39
2022/03/03 09:55:11;;;;;;;18.10;15.90;;;12.50;72.30;;;;;;5027544;28;20457;-40
2022/03/03 09:57:38;;;;;;;23.97;15.87;;;12.70;71.40;;;;;;5029673;28;20436;-40
2022/03/03 10:00:09;;;;;;;20.47;16.13;;;12.90;69.60;;;;;;5021303;28;20438;-39
2022/03/03 10:02:58;;;;;;;17.70;14.00;;;13.10;68.00;;;;;;5027903;28;20421;-39
2022/03/03 10:05:50;;;;;;;18.60;14.00;;;13.20;65.50;;;;;;5028454;28;20814;-39
2022/03/03 10:08:17;;;;;;;15.00;12.67;;;13.50;65.80;;;;;;5026183;28;20982;-39
2022/03/03 10:10:48;;;;;;;14.87;11.90;;;13.50;60.10;;;;;;5028421;28;20472;-39
2022/03/03 10:13:17;;;;;;;16.83;13.00;;;13.40;62.50;;;;;;5029288;28;20467;-40
2022/03/03 10:15:50;;;;;;;15.70;12.17;;;13.40;59.70;;;;;;5018319;28;20440;-39
2022/03/03 10:18:17;;;;;;;15.13;12.30;;;13.50;59.80;;;;;;5028565;28;20425;-40
2022/03/03 10:20:58;;;;;;;15.10;12.60;;;13.70;58.10;;;;;;5028276;28;20453;-39
2022/03/03 10:23:35;;;;;;;16.93;13.93;;;13.50;59.10;;;;;;5047720;28;20535;-42
2022/03/03 10:26:05;;;;;;;18.53;12.90;;;13.80;59.50;;;;;;5048745;28;21052;-40
2022/03/03 10:28:33;;;;;;;17.33;13.80;;;14.00;59.30;;;;;;5048316;28;20984;-39
2022/03/03 10:31:01;;;;;;;16.93;13.97;;;14.00;58.00;;;;;;5020301;28;20438;-40
2022/03/03 10:33:38;;;;;;;18.00;13.07;;;14.00;59.50;;;;;;5028769;28;20505;-39
2022/03/03 10:36:17;;;;;;;14.73;13.03;;;14.00;58.60;;;;;;5025916;28;20416;-39
2022/03/03 10:38:59;;;;;;;16.50;13.67;;;13.90;58.70;;;;;;5028748;28;20437;-40
2022/03/03 10:41:46;;;;;;;18.13;12.67;;;13.90;58.10;;;;;;5015689;28;20425;-39
2022/03/03 10:44:14;;;;;;;17.20;12.97;;;13.90;58.10;;;;;;5028814;28;20819;-40
2022/03/03 10:47:09;;;;;;;14.90;12.00;;;13.90;57.90;;;;;;5013135;28;20464;-39
2022/03/03 10:49:44;;;;;;;16.47;13.03;;;14.00;57.70;;;;;;5026949;28;20463;-40
2022/03/03 10:52:11;;;;;;;18.50;14.33;;;14.00;57.90;;;;;;5028486;28;20428;-40
2022/03/03 10:54:56;;;;;;;16.60;13.60;;;13.90;57.60;;;;;;5028443;28;20469;-39
2022/03/03 10:57:40;;;;;;;18.87;13.77;;;13.60;57.50;;;;;;5028161;28;20978;-39
2022/03/03 11:00:10;;;;;;;15.73;13.20;;;13.70;57.80;;;;;;5025501;28;20432;-39
2022/03/03 11:02:38;;;;;;;16.03;12.33;;;13.70;57.70;;;;;;5020945;28;20767;-40
2022/03/03 11:05:05;;;;;;;15.10;13.00;;;13.80;58.00;;;;;;5028446;28;20480;-39
2022/03/03 11:07:32;;;;;;;14.10;11.70;;;13.80;56.60;;;;;;5028418;28;20970;-40
2022/03/03 11:09:58;;;;;;;16.50;13.83;;;13.50;56.60;;;;;;5027532;28;20452;-40
2022/03/03 11:12:25;;;;;;;13.00;11.30;;;13.20;56.50;;;;;;5026616;28;20799;-40
2022/03/03 11:14:53;;;;;;;22.30;13.40;;;13.20;56.20;;;;;;5024799;28;20520;-39
2022/03/03 11:17:19;;;;;;;16.67;12.53;;;12.90;56.30;;;;;;5021607;28;20401;-39
2022/03/03 11:19:45;;;;;;;15.53;13.60;;;12.70;57.00;;;;;;5026011;28;20423;-40
2022/03/03 11:22:15;;;;;;;16.67;12.60;;;12.60;57.60;;;;;;5037058;28;20421;-40
2022/03/03 11:24:42;;;;;;;15.93;12.67;;;12.50;57.90;;;;;;5037537;28;20424;-39
2022/03/03 11:27:08;;;;;;;17.50;13.10;;;12.40;58.00;;;;;;5046764;28;20761;-39
2022/03/03 11:29:38;;;;;;;13.57;11.67;;;12.30;58.10;;;;;;5047197;28;20644;-39
2022/03/03 11:32:17;;;;;;;16.63;12.90;;;12.30;58.00;;;;;;5021384;28;20420;-39
2022/03/03 11:34:45;;;;;;;17.60;12.67;;;12.40;57.70;;;;;;5027665;28;20834;-39
2022/03/03 11:37:18;;;;;;;16.47;13.83;;;12.50;58.00;;;;;;5026427;28;20799;-40
2022/03/03 11:39:59;;;;;;;16.17;12.40;;;12.60;57.10;;;;;;5027082;28;20749;-39
2022/03/03 11:42:38;;;;;;;13.90;12.00;;;12.70;57.20;;;;;;5026684;28;20416;-40
2022/03/03 11:45:06;;;;;;;13.50;11.10;;;12.80;57.10;;;;;;5024288;28;20416;-40
2022/03/03 11:47:35;;;;;;;14.67;11.77;;;13.00;56.90;;;;;;5021532;28;20432;-40
2022/03/03 11:50:24;;;;;;;12.30;11.00;;;13.30;57.10;;;;;;5025347;28;20461;-40
2022/03/03 11:53:18;;;;;;;12.80;10.97;;;13.50;56.30;;;;;;5014427;28;20417;-39
2022/03/03 11:56:03;;;;;;;13.50;11.37;;;13.70;54.80;;;;;;5027302;28;21073;-42
2022/03/03 11:58:32;;;;;;;13.80;12.40;;;13.80;55.40;;;;;;5028013;28;20433;-40
2022/03/03 12:00:58;;;;;;;16.27;11.97;;;13.90;54.50;;;;;;5017464;28;20426;-39
2022/03/03 12:03:24;;;;;;;11.93;10.83;;;13.90;53.50;;;;;;5024369;28;20421;-41
2022/03/03 12:06:08;;;;;;;12.73;10.63;;;14.10;54.20;;;;;;5027525;28;20267;-40
2022/03/03 12:08:42;;;;;;;15.43;11.50;;;14.20;52.40;;;;;;5027183;28;20587;-40
2022/03/03 12:11:17;;;;;;;13.30;10.67;;;14.20;52.20;;;;;;5026735;28;20428;-39
2022/03/03 12:13:51;;;;;;;14.90;10.77;;;14.40;52.90;;;;;;5027470;28;20424;-39
2022/03/03 12:16:28;;;;;;;13.77;11.80;;;14.30;51.00;;;;;;5018087;28;20422;-39
2022/03/03 12:18:58;;;;;;;12.73;11.33;;;14.20;51.90;;;;;;5022011;28;20496;-40
2022/03/03 12:21:36;;;;;;;14.67;12.13;;;14.10;52.60;;;;;;5042413;28;20428;-39
2022/03/03 12:24:14;;;;;;;15.13;12.23;;;14.00;53.00;;;;;;5043219;28;20444;-40
2022/03/03 12:26:52;;;;;;;13.00;11.57;;;14.20;52.70;;;;;;5045909;28;20935;-39
2022/03/03 12:29:30;;;;;;;13.20;11.40;;;14.20;53.50;;;;;;5046785;28;20963;-41
2022/03/03 12:31:56;;;;;;;12.90;11.60;;;14.40;52.40;;;;;;5023733;28;20468;-41
2022/03/03 12:34:22;;;;;;;14.97;11.37;;;14.20;52.40;;;;;;5027203;28;20864;-40
2022/03/03 12:36:54;;;;;;;13.17;11.50;;;14.20;52.00;;;;;;5026904;28;20421;-40
2022/03/03 12:39:20;;;;;;;12.63;11.00;;;14.20;52.40;;;;;;5027062;28;20182;-40